Pirpirituba, Brazil
Current Conditions -  °F | °C
As of 11:00 AM on Wednesday 22 Oct 2014 (Local Time) from SBKG Reporting Station
Broken Clouds Broken Clouds  
Wind Chill: 84°   Ceiling: 2200
Heat Index: 87°   Visibility: 6mi
Dew Point: 68°   Wind: 13mph
Humidity: 58%   Direction: 120°ESE
Pressure: 30.06"   Gusts: NA
Location:  6.78°S, 35.5°W
Report Text: SBKG 221400Z 12011KT 9999 BKN022 29/20 Q1018
Loading
Personal Weather Stations






























Interactive Weather Map
Tropical Storm Tracking
New forecast layout! Learn more

10-Day Weather Forecast

Advertisements
Track Severe Weather on mobile